createdAt,value
2019-06-20T00:00:46.194Z,99561.49
2019-06-20T00:03:32.759Z,99566.69
2019-06-20T00:06:18.857Z,99552.05
2019-06-20T00:09:06.695Z,99575.55
2019-06-20T00:11:53.182Z,99581.92
2019-06-20T00:14:39.551Z,99592.91
2019-06-20T00:17:25.868Z,99589.10
2019-06-20T00:20:12.191Z,99595.52
2019-06-20T00:22:58.492Z,99590.28
2019-06-20T00:25:44.829Z,99585.77
2019-06-20T00:28:30.762Z,99580.78
2019-06-20T00:31:17.017Z,99586.86
2019-06-20T00:34:03.137Z,99583.02
2019-06-20T00:36:51.377Z,99582.27
2019-06-20T00:39:37.593Z,99583.41
2019-06-20T00:42:23.972Z,99589.22
2019-06-20T00:45:10.230Z,99589.34
2019-06-20T00:47:56.347Z,99581.14
2019-06-20T00:50:42.512Z,99596.09
2019-06-20T00:53:28.612Z,99599.08
2019-06-20T00:56:14.901Z,99599.88
2019-06-20T00:59:00.995Z,99611.22
2019-06-20T01:01:47.248Z,99605.05
2019-06-20T01:04:33.492Z,99605.92
2019-06-20T01:07:19.628Z,99606.86
2019-06-20T01:10:07.152Z,99607.20
2019-06-20T01:12:56.157Z,99615.20
2019-06-20T01:15:42.272Z,99616.93
2019-06-20T01:18:28.392Z,99620.59
2019-06-20T01:21:16.311Z,99616.62
2019-06-20T01:24:02.117Z,99618.69
2019-06-20T01:26:49.092Z,99634.81
2019-06-20T01:29:35.297Z,99631.88
2019-06-20T01:32:21.397Z,99626.55
2019-06-20T01:35:08.051Z,99629.41
2019-06-20T01:37:54.313Z,99625.92
2019-06-20T01:40:40.519Z,99617.23
2019-06-20T01:43:26.673Z,99622.47
2019-06-20T01:46:13.679Z,99621.14
2019-06-20T01:49:00.117Z,99622.56
2019-06-20T01:51:46.265Z,99620.63
2019-06-20T01:54:32.532Z,99626.41
2019-06-20T01:57:18.967Z,99634.48
2019-06-20T02:00:06.012Z,99626.07
2019-06-20T02:02:52.092Z,99626.44
2019-06-20T02:05:38.138Z,99626.62
2019-06-20T02:08:24.326Z,99627.80
2019-06-20T02:11:10.508Z,99624.68
2019-06-20T02:14:06.783Z,99622.08
2019-06-20T02:16:44.748Z,99617.96
2019-06-20T02:19:30.941Z,99621.08
2019-06-20T02:22:17.147Z,99617.84
2019-06-20T02:25:04.060Z,99613.16
2019-06-20T02:27:49.958Z,99620.56
2019-06-20T02:30:36.115Z,99616.75
2019-06-20T02:33:22.367Z,99617.54
2019-06-20T02:36:08.388Z,99617.54
2019-06-20T02:38:54.581Z,99621.41
2019-06-20T02:41:40.920Z,99619.50
2019-06-20T02:44:30.492Z,99624.70
2019-06-20T02:47:15.173Z,99624.31
2019-06-20T02:50:01.441Z,99627.83
2019-06-20T02:52:47.676Z,99633.55
2019-06-20T02:55:33.817Z,99632.17
2019-06-20T02:58:20.318Z,99629.91
2019-06-20T03:01:06.293Z,99627.10
2019-06-20T03:03:52.666Z,99631.23
2019-06-20T03:06:38.888Z,99638.52
2019-06-20T03:09:25.158Z,99639.94
2019-06-20T03:12:11.439Z,99651.34
2019-06-20T03:14:57.467Z,99649.53
2019-06-20T03:17:43.625Z,99651.01
2019-06-20T03:20:29.897Z,99655.07
2019-06-20T03:23:16.168Z,99654.05
2019-06-20T03:26:02.264Z,99657.23
2019-06-20T03:28:48.435Z,99665.77
2019-06-20T03:31:34.484Z,99670.02
2019-06-20T03:34:20.718Z,99680.22
2019-06-20T03:37:06.983Z,99678.90
2019-06-20T03:39:53.188Z,99685.55
2019-06-20T03:42:39.331Z,99679.50
2019-06-20T03:45:25.356Z,99682.33
2019-06-20T03:48:11.413Z,99686.45
2019-06-20T03:50:57.689Z,99682.23
2019-06-20T03:53:43.869Z,99681.97
2019-06-20T03:56:29.874Z,99682.36
2019-06-20T03:59:16.242Z,99682.42
2019-06-20T04:02:02.262Z,99677.00
2019-06-20T04:04:48.354Z,99672.62
2019-06-20T04:07:34.788Z,99686.14
2019-06-20T04:10:20.887Z,99683.40
2019-06-20T04:13:07.084Z,99691.73
2019-06-20T04:15:53.168Z,99694.52
2019-06-20T04:18:39.382Z,99696.80
2019-06-20T04:21:25.453Z,99699.92
2019-06-20T04:24:11.583Z,99698.36
2019-06-20T04:26:57.804Z,99707.69
2019-06-20T04:29:44.183Z,99709.02
2019-06-20T04:32:30.217Z,99717.35
2019-06-20T04:35:16.543Z,99718.59
2019-06-20T04:38:02.792Z,99719.29
2019-06-20T04:40:48.936Z,99727.19
2019-06-20T04:43:35.162Z,99729.50
2019-06-20T04:46:46.650Z,99721.47
2019-06-20T04:49:32.859Z,99727.41
2019-06-20T04:52:19.038Z,99729.47
2019-06-20T04:55:05.768Z,99733.12
2019-06-20T04:57:51.884Z,99742.52
2019-06-20T05:00:38.732Z,99740.72
2019-06-20T05:03:24.768Z,99751.68
2019-06-20T05:06:11.029Z,99753.08
2019-06-20T05:08:57.159Z,99756.39
2019-06-20T05:11:43.385Z,99754.37
2019-06-20T05:14:29.658Z,99763.44
2019-06-20T05:17:15.688Z,99765.07
2019-06-20T05:20:01.993Z,99767.30
2019-06-20T05:22:48.056Z,99771.16
2019-06-20T05:25:34.635Z,99758.80
2019-06-20T05:28:21.221Z,99772.11
2019-06-20T05:31:07.221Z,99773.98
2019-06-20T05:33:53.394Z,99774.77
2019-06-20T05:36:39.676Z,99773.98
2019-06-20T05:39:25.771Z,99772.06
2019-06-20T05:42:11.866Z,99775.46
2019-06-20T05:44:58.235Z,99775.20
2019-06-20T05:47:44.256Z,99771.42
2019-06-20T05:50:31.005Z,99779.32
2019-06-20T05:53:17.167Z,99776.19
2019-06-20T05:56:03.292Z,99781.25
2019-06-20T05:58:50.516Z,99781.69
2019-06-20T06:01:36.540Z,99785.10
2019-06-20T06:04:22.762Z,99779.84
2019-06-20T06:07:08.853Z,99767.82
2019-06-20T06:09:54.976Z,99771.59
2019-06-20T06:12:41.231Z,99772.08
2019-06-20T06:15:27.447Z,99777.83
2019-06-20T06:18:14.220Z,99778.41
2019-06-20T06:21:00.351Z,99776.06
2019-06-20T06:23:46.630Z,99783.65
2019-06-20T06:26:32.693Z,99784.22
2019-06-20T06:29:18.841Z,99787.64
2019-06-20T06:32:06.305Z,99787.75
2019-06-20T06:34:52.472Z,99786.67
2019-06-20T06:37:38.640Z,99778.13
2019-06-20T06:40:24.779Z,99784.32
2019-06-20T06:43:10.860Z,99779.25
2019-06-20T06:45:57.099Z,99792.12
2019-06-20T06:48:43.340Z,99799.09
2019-06-20T06:51:29.580Z,99798.03
2019-06-20T06:54:15.890Z,99797.67
2019-06-20T06:57:02.021Z,99790.36
2019-06-20T06:59:48.243Z,99787.78
2019-06-20T07:02:34.702Z,99785.41
2019-06-20T07:05:20.861Z,99794.45
2019-06-20T07:08:08.685Z,99787.27
2019-06-20T07:10:55.130Z,99787.03
2019-06-20T07:13:41.172Z,99781.06
2019-06-20T07:16:27.373Z,99790.30
2019-06-20T07:19:13.414Z,99796.75
2019-06-20T07:21:59.729Z,99817.09
2019-06-20T07:24:45.865Z,99820.48
2019-06-20T07:27:31.933Z,99823.72
2019-06-20T07:30:18.215Z,99815.09
2019-06-20T07:33:04.402Z,99821.13
2019-06-20T07:35:50.540Z,99814.27
2019-06-20T07:38:36.676Z,99815.23
2019-06-20T07:41:22.990Z,99814.05
2019-06-20T07:44:09.006Z,99811.26
2019-06-20T07:46:55.358Z,99806.25
2019-06-20T07:49:41.530Z,99805.11
2019-06-20T07:52:27.893Z,99794.55
2019-06-20T07:55:13.871Z,99794.47
2019-06-20T07:57:59.837Z,99803.69
2019-06-20T08:00:45.923Z,99809.55
2019-06-20T08:03:32.231Z,99811.66
2019-06-20T08:06:18.217Z,99809.15
2019-06-20T08:09:07.163Z,99807.20
2019-06-20T08:11:53.167Z,99819.39
2019-06-20T08:14:39.250Z,99806.28
2019-06-20T08:17:34.909Z,99819.84
2019-06-20T08:20:15.527Z,99828.84
2019-06-20T08:23:02.035Z,99849.03
2019-06-20T08:25:48.275Z,99856.23
2019-06-20T08:28:34.447Z,99842.69
2019-06-20T08:31:20.657Z,99828.83
2019-06-20T08:34:06.774Z,99841.09
2019-06-20T08:36:52.955Z,99826.59
2019-06-20T08:39:39.020Z,99831.27
2019-06-20T08:42:25.295Z,99846.91
2019-06-20T08:45:11.937Z,99864.77
2019-06-20T08:47:58.438Z,99855.69
2019-06-20T08:50:44.479Z,99851.81
2019-06-20T08:53:30.775Z,99864.94
2019-06-20T08:56:17.054Z,99859.83
2019-06-20T08:59:03.268Z,99860.12
2019-06-20T09:01:49.630Z,99864.25
2019-06-20T09:04:36.092Z,99855.78
2019-06-20T09:07:22.469Z,99858.89
2019-06-20T09:10:09.141Z,99860.45
2019-06-20T09:12:57.077Z,99858.95
2019-06-20T09:15:44.390Z,99864.33
2019-06-20T09:18:30.624Z,99859.55
2019-06-20T09:21:16.711Z,99866.78
2019-06-20T09:24:04.116Z,99874.66
2019-06-20T09:26:51.140Z,99871.82
2019-06-20T09:29:41.969Z,99871.66
2019-06-20T09:32:26.921Z,99877.75
2019-06-20T09:35:13.724Z,99882.27
2019-06-20T09:37:59.689Z,99882.30
2019-06-20T09:40:45.775Z,99880.20
2019-06-20T09:43:32.150Z,99886.13
2019-06-20T09:46:18.380Z,99879.40
2019-06-20T09:49:04.485Z,99879.85
2019-06-20T09:51:52.087Z,99880.56
2019-06-20T09:54:38.499Z,99867.59
2019-06-20T09:57:24.760Z,99879.63
2019-06-20T10:00:12.775Z,99877.95
2019-06-20T10:02:59.141Z,99886.94
2019-06-20T10:05:47.156Z,99879.42
2019-06-20T10:08:33.710Z,99878.70
2019-06-20T10:11:19.878Z,99885.42
2019-06-20T10:14:06.185Z,99894.61
2019-06-20T10:16:54.064Z,99894.61
2019-06-20T10:19:40.725Z,99883.33
2019-06-20T10:22:27.326Z,99888.58
2019-06-20T10:25:13.705Z,99873.45
2019-06-20T10:28:00.244Z,99869.95
2019-06-20T10:30:46.544Z,99855.36
2019-06-20T10:33:32.641Z,99862.05
2019-06-20T10:36:18.566Z,99869.98
2019-06-20T10:39:08.096Z,99891.58
2019-06-20T10:41:54.438Z,99889.09
2019-06-20T10:44:40.787Z,99891.46
2019-06-20T10:47:33.552Z,99886.34
2019-06-20T10:50:15.418Z,99900.51
2019-06-20T10:53:01.541Z,99880.19
2019-06-20T10:55:47.536Z,99868.34
2019-06-20T10:58:33.830Z,99869.92
2019-06-20T11:01:20.101Z,99875.23
2019-06-20T11:04:06.380Z,99875.33
2019-06-20T11:06:52.238Z,99877.08
2019-06-20T11:09:39.582Z,99867.11
2019-06-20T11:12:26.674Z,99874.41
2019-06-20T11:15:13.270Z,99880.33
2019-06-20T11:17:59.675Z,99878.77
2019-06-20T11:20:46.638Z,99874.64
2019-06-20T11:23:33.092Z,99876.84
2019-06-20T11:26:19.160Z,99865.94
2019-06-20T11:29:05.394Z,99872.71
2019-06-20T11:31:51.568Z,99890.30
2019-06-20T11:34:38.298Z,99883.52
2019-06-20T11:37:25.591Z,99876.67
2019-06-20T11:40:11.844Z,99880.20
2019-06-20T11:42:57.823Z,99890.86
2019-06-20T11:45:43.913Z,99886.36
2019-06-20T11:48:35.734Z,99898.19
2019-06-20T11:51:22.904Z,99899.12
2019-06-20T11:54:08.984Z,99892.84
2019-06-20T11:56:55.230Z,99885.98
2019-06-20T11:59:41.621Z,99887.28
2019-06-20T12:02:27.657Z,99889.89
2019-06-20T12:05:15.605Z,99888.14
2019-06-20T12:08:01.821Z,99882.92
2019-06-20T12:10:47.819Z,99870.28
2019-06-20T12:13:34.240Z,99895.82
2019-06-20T12:16:21.099Z,99894.25
2019-06-20T12:19:07.120Z,99887.40
2019-06-20T12:21:53.313Z,99892.18
2019-06-20T12:24:41.282Z,99891.45
2019-06-20T12:27:28.072Z,99907.62
2019-06-20T12:30:14.752Z,99907.83
2019-06-20T12:33:00.859Z,99908.17
2019-06-20T12:35:46.866Z,99905.84
2019-06-20T12:38:33.131Z,99898.48
2019-06-20T12:41:19.294Z,99884.35
2019-06-20T12:44:05.421Z,99885.28
2019-06-20T12:46:51.626Z,99885.28
2019-06-20T12:49:38.967Z,99868.08
2019-06-20T12:52:25.885Z,99869.22
2019-06-20T12:55:12.315Z,99881.95
2019-06-20T12:57:58.677Z,99875.31
2019-06-20T13:00:46.450Z,99867.03
2019-06-20T13:03:32.660Z,99867.59
2019-06-20T13:06:18.834Z,99865.13
2019-06-20T13:09:05.658Z,99861.80
2019-06-20T13:11:51.847Z,99871.50
2019-06-20T13:14:39.215Z,99878.48
2019-06-20T13:17:26.218Z,99880.32
2019-06-20T13:20:12.677Z,99879.54
2019-06-20T13:22:58.720Z,99878.73
2019-06-20T13:25:44.824Z,99867.31
2019-06-20T13:28:31.019Z,99868.80
2019-06-20T13:31:16.985Z,99862.17
2019-06-20T13:34:03.222Z,99857.97
2019-06-20T13:36:49.767Z,99860.84
2019-06-20T13:39:35.935Z,99854.66
2019-06-20T13:42:22.100Z,99850.98
2019-06-20T13:45:19.620Z,99837.33
2019-06-20T13:48:05.851Z,99837.33
2019-06-20T13:50:52.251Z,99845.16
2019-06-20T13:53:39.213Z,99827.30
2019-06-20T13:56:26.025Z,99832.59
2019-06-20T13:59:12.328Z,99831.37
2019-06-20T14:02:06.715Z,99832.39
2019-06-20T14:04:48.268Z,99832.59
2019-06-20T14:07:34.652Z,99829.70
2019-06-20T14:10:21.088Z,99829.70
2019-06-20T14:13:18.744Z,99843.27
2019-06-20T14:15:55.799Z,99843.27
2019-06-20T14:18:44.145Z,99836.81
2019-06-20T14:21:29.829Z,99831.73
2019-06-20T14:24:15.933Z,99838.39
2019-06-20T14:27:02.441Z,99844.34
2019-06-20T14:29:49.127Z,99838.12
2019-06-20T14:32:35.728Z,99828.22
2019-06-20T14:35:21.928Z,99828.22
2019-06-20T14:38:08.028Z,99823.27
2019-06-20T14:40:54.549Z,99833.61
2019-06-20T14:43:42.980Z,99822.56
2019-06-20T14:46:29.632Z,99837.14
2019-06-20T14:49:15.802Z,99833.11
2019-06-20T14:52:02.152Z,99831.67
2019-06-20T14:54:49.762Z,99833.48
2019-06-20T14:57:36.160Z,99818.72
2019-06-20T15:00:22.866Z,99824.06
2019-06-20T15:03:08.978Z,99816.15
2019-06-20T15:05:55.323Z,99829.03
2019-06-20T15:08:41.302Z,99837.58
2019-06-20T15:11:27.547Z,99832.02
2019-06-20T15:14:13.746Z,99832.02
2019-06-20T15:16:59.967Z,99849.83
2019-06-20T15:19:46.682Z,99844.92
2019-06-20T15:22:33.909Z,99839.33
2019-06-20T15:25:19.996Z,99852.78
2019-06-20T15:28:06.109Z,99862.84
2019-06-20T15:30:52.760Z,99865.06
2019-06-20T15:33:39.192Z,99865.20
2019-06-20T15:36:25.482Z,99860.42
2019-06-20T15:39:11.736Z,99858.38
2019-06-20T15:41:58.226Z,99851.77
2019-06-20T15:44:44.428Z,99863.46
2019-06-20T15:47:30.749Z,99872.59
2019-06-20T15:50:16.851Z,99859.31
2019-06-20T15:53:03.185Z,99864.66
2019-06-20T15:55:49.140Z,99868.79
2019-06-20T15:58:35.146Z,99871.85
2019-06-20T16:01:21.327Z,99872.16
2019-06-20T16:04:07.531Z,99869.88
2019-06-20T16:06:54.553Z,99870.94
2019-06-20T16:09:41.215Z,99876.07
2019-06-20T16:12:27.386Z,99888.05
2019-06-20T16:15:21.337Z,99892.06
2019-06-20T16:18:07.280Z,99898.98
2019-06-20T16:20:53.723Z,99899.38
2019-06-20T16:23:40.834Z,99907.48
2019-06-20T16:26:27.035Z,99920.03
2019-06-20T16:29:13.034Z,99913.14
2019-06-20T16:31:58.906Z,99914.63
2019-06-20T16:34:44.938Z,99915.52
2019-06-20T16:37:31.269Z,99913.98
2019-06-20T16:40:25.123Z,99918.28
2019-06-20T16:43:11.574Z,99912.58
2019-06-20T16:45:58.222Z,99919.38
2019-06-20T16:48:44.423Z,99919.38
2019-06-20T16:51:30.564Z,99918.63
2019-06-20T16:54:16.722Z,99919.73
2019-06-20T16:57:02.978Z,99916.95
2019-06-20T16:59:48.989Z,99921.16
2019-06-20T17:02:35.379Z,99934.81
2019-06-20T17:05:21.484Z,99931.53
2019-06-20T17:08:07.884Z,99931.55
2019-06-20T17:10:53.889Z,99931.35
2019-06-20T17:13:40.044Z,99931.23
2019-06-20T17:16:26.678Z,99940.00
2019-06-20T17:19:12.828Z,99934.44
2019-06-20T17:21:59.119Z,99940.00
2019-06-20T17:24:45.068Z,99955.49
2019-06-20T17:27:31.551Z,99955.76
2019-06-20T17:30:18.175Z,99961.00
2019-06-20T17:33:04.424Z,99971.23
2019-06-20T17:35:50.940Z,99974.73
2019-06-20T17:38:37.460Z,99978.54
2019-06-20T17:41:23.540Z,99978.39
2019-06-20T17:44:09.882Z,99975.27
2019-06-20T17:46:56.536Z,99985.56
2019-06-20T17:49:43.341Z,99980.91
2019-06-20T17:52:30.139Z,99968.98
2019-06-20T17:55:16.760Z,99983.47
2019-06-20T17:58:02.973Z,99975.63
2019-06-20T18:00:49.987Z,99981.17
2019-06-20T18:03:36.662Z,99976.91
2019-06-20T18:06:23.445Z,99973.70
2019-06-20T18:09:10.202Z,99974.26
2019-06-20T18:11:56.840Z,99976.88
2019-06-20T18:14:43.480Z,99977.94
2019-06-20T18:17:30.280Z,99969.25
2019-06-20T18:20:19.743Z,99978.52
2019-06-20T18:23:06.400Z,99987.55
2019-06-20T18:25:54.642Z,99985.19
2019-06-20T18:28:41.301Z,99994.22
2019-06-20T18:31:27.842Z,99995.23
2019-06-20T18:34:29.229Z,99998.05
2019-06-20T18:37:03.760Z,100009.26
2019-06-20T18:39:50.293Z,100010.61
2019-06-20T18:42:37.028Z,100009.21
2019-06-20T18:45:24.200Z,100020.55
2019-06-20T18:48:11.139Z,100031.70
2019-06-20T18:50:57.493Z,100034.80
2019-06-20T18:53:44.354Z,100036.30
2019-06-20T18:56:30.733Z,100035.98
2019-06-20T18:59:17.576Z,100042.28
2019-06-20T19:02:04.729Z,100035.62
2019-06-20T19:04:51.138Z,100045.84
2019-06-20T19:07:37.725Z,100043.25
2019-06-20T19:10:24.593Z,100045.70
2019-06-20T19:13:13.038Z,100047.56
2019-06-20T19:15:59.678Z,100053.95
2019-06-20T19:18:46.343Z,100057.00
2019-06-20T19:21:33.104Z,100066.66
2019-06-20T19:24:19.841Z,100071.59
2019-06-20T19:27:06.647Z,100076.66
2019-06-20T19:29:53.381Z,100087.24
2019-06-20T19:32:39.932Z,100091.55
2019-06-20T19:35:26.327Z,100091.55
2019-06-20T19:38:12.902Z,100098.59
2019-06-20T19:40:59.570Z,100108.08
2019-06-20T19:43:46.117Z,100106.21
2019-06-20T19:46:32.578Z,100104.53
2019-06-20T19:49:19.393Z,100106.97
2019-06-20T19:52:06.109Z,100113.88
2019-06-20T19:54:52.947Z,100113.75
2019-06-20T19:57:39.727Z,100119.92
2019-06-20T20:00:26.367Z,100132.40
2019-06-20T20:03:13.152Z,100128.73
2019-06-20T20:06:00.049Z,100134.55
2019-06-20T20:08:46.683Z,100137.38
2019-06-20T20:11:33.117Z,100140.14
2019-06-20T20:14:19.835Z,100145.42
2019-06-20T20:17:06.057Z,100153.13
2019-06-20T20:19:52.895Z,100154.77
2019-06-20T20:22:39.527Z,100151.28
2019-06-20T20:25:25.989Z,100154.12
2019-06-20T20:28:12.727Z,100150.61
2019-06-20T20:30:59.235Z,100149.42
2019-06-20T20:33:45.420Z,100148.48
2019-06-20T20:36:32.182Z,100155.33
2019-06-20T20:39:18.797Z,100153.88
2019-06-20T20:42:05.666Z,100159.42
2019-06-20T20:44:52.187Z,100155.16
2019-06-20T20:47:38.527Z,100167.95
2019-06-20T20:50:24.786Z,100168.78
2019-06-20T20:53:10.819Z,100165.98
2019-06-20T20:55:56.830Z,100165.55
2019-06-20T20:58:42.892Z,100170.38
2019-06-20T21:01:30.202Z,100171.32
2019-06-20T21:04:16.634Z,100172.40
2019-06-20T21:07:02.967Z,100172.52
2019-06-20T21:09:49.130Z,100182.44
2019-06-20T21:12:35.183Z,100186.64
2019-06-20T21:15:21.606Z,100195.78
2019-06-20T21:18:07.772Z,100200.30
2019-06-20T21:20:54.163Z,100205.72
2019-06-20T21:23:40.355Z,100205.38
2019-06-20T21:26:26.527Z,100206.79
2019-06-20T21:29:12.699Z,100202.83
2019-06-20T21:31:58.827Z,100205.51
2019-06-20T21:34:45.027Z,100211.17
2019-06-20T21:37:31.434Z,100217.02
2019-06-20T21:40:18.159Z,100214.75
2019-06-20T21:43:04.828Z,100213.08
2019-06-20T21:45:51.442Z,100212.95
2019-06-20T21:48:37.474Z,100221.86
2019-06-20T21:51:23.767Z,100224.39
2019-06-20T21:54:10.476Z,100224.13
2019-06-20T21:56:56.691Z,100217.87
2019-06-20T21:59:42.692Z,100231.67
2019-06-20T22:02:28.981Z,100233.06
2019-06-20T22:05:15.183Z,100234.09
2019-06-20T22:08:01.456Z,100235.09
2019-06-20T22:10:47.472Z,100241.24
2019-06-20T22:13:33.707Z,100237.33
2019-06-20T22:16:19.908Z,100251.16
2019-06-20T22:19:05.947Z,100250.00
2019-06-20T22:21:52.030Z,100254.77
2019-06-20T22:24:38.297Z,100247.08
2019-06-20T22:27:24.404Z,100248.72
2019-06-20T22:30:11.443Z,100246.11
2019-06-20T22:32:57.888Z,100247.42
2019-06-20T22:35:45.903Z,100256.48
2019-06-20T22:38:32.647Z,100255.10
2019-06-20T22:41:18.757Z,100260.42
2019-06-20T22:44:04.916Z,100255.83
2019-06-20T22:46:50.983Z,100259.14
2019-06-20T22:49:37.317Z,100261.22
2019-06-20T22:52:23.517Z,100261.53
2019-06-20T22:55:09.917Z,100268.09
2019-06-20T22:57:56.508Z,100267.83
2019-06-20T23:00:42.896Z,100271.22
2019-06-20T23:03:28.853Z,100274.67
2019-06-20T23:06:14.917Z,100272.98
2019-06-20T23:09:00.997Z,100281.54
2019-06-20T23:11:47.339Z,100281.20
2019-06-20T23:14:33.785Z,100281.23
2019-06-20T23:17:19.986Z,100279.45
2019-06-20T23:20:06.705Z,100278.80
2019-06-20T23:22:53.057Z,100279.45
2019-06-20T23:25:41.102Z,100278.41
2019-06-20T23:28:27.530Z,100278.43
2019-06-20T23:31:13.658Z,100284.78
2019-06-20T23:33:59.919Z,100284.11
2019-06-20T23:36:46.211Z,100290.41
2019-06-20T23:39:32.456Z,100289.28
2019-06-20T23:42:18.637Z,100287.19
2019-06-20T23:45:05.136Z,100287.20
2019-06-20T23:47:51.417Z,100294.00
2019-06-20T23:50:37.518Z,100293.73
2019-06-20T23:53:26.059Z,100291.44
2019-06-20T23:56:11.812Z,100292.92
2019-06-20T23:58:57.910Z,100293.75
